Time,TemperatureF,DewpointF,PressureIn,WindDirection,WindDirectionDegrees,WindSpeedMPH,WindSpeedGustMPH,Humidity,HourlyPrecipIn,Conditions,Clouds,dailyrainin,SoftwareType,DateUTC
2013-01-03 00:01:00,11.0,7.1,24.75,NNE,16,0.0,1.0,84,0.00,,---,0.00,VWS V14.01,2013-01-03 07:01:00,
2013-01-03 00:06:00,10.9,7.0,24.75,NE,47,0.0,1.0,84,0.00,,---,0.00,VWS V14.01,2013-01-03 07:06:00,
2013-01-03 00:11:00,11.1,7.5,24.75,NE,46,0.0,1.0,85,0.00,,---,0.00,VWS V14.01,2013-01-03 07:11:00,
2013-01-03 00:16:00,11.3,7.7,24.75,NE,47,0.0,1.0,85,0.00,,---,0.00,VWS V14.01,2013-01-03 07:16:00,
2013-01-03 00:21:00,10.8,6.9,24.75,NNE,33,1.0,1.0,84,0.00,,---,0.00,VWS V14.01,2013-01-03 07:21:00,
2013-01-03 00:26:00,10.2,6.1,24.75,NE,39,0.0,1.0,83,0.00,,---,0.00,VWS V14.01,2013-01-03 07:26:00,
2013-01-03 00:31:00,9.7,5.6,24.75,NE,35,0.0,2.0,83,0.00,,---,0.00,VWS V14.01,2013-01-03 07:31:00,
2013-01-03 00:36:00,9.1,5.0,24.75,SSW,200,0.0,2.0,83,0.00,,---,0.00,VWS V14.01,2013-01-03 07:36:00,
2013-01-03 00:41:00,8.4,4.3,24.75,SSW,200,0.0,2.0,83,0.00,,---,0.00,VWS V14.01,2013-01-03 07:41:00,
2013-01-03 00:46:00,8.2,4.4,24.75,SSW,200,0.0,2.0,84,0.00,,---,0.00,VWS V14.01,2013-01-03 07:46:00,
2013-01-03 00:51:00,8.4,4.8,24.75,SE,144,0.0,2.0,85,0.00,,---,0.00,VWS V14.01,2013-01-03 07:51:00,
2013-01-03 00:56:00,8.3,5.0,24.75,ESE,110,0.0,2.0,86,0.00,,---,0.00,VWS V14.01,2013-01-03 07:56:00,
2013-01-03 01:01:00,8.3,5.0,24.75,ESE,112,0.0,0.0,86,0.00,,---,0.00,VWS V14.01,2013-01-03 08:01:00,
2013-01-03 01:06:00,8.5,5.2,24.75,ESE,107,0.0,1.0,86,0.00,,---,0.00,VWS V14.01,2013-01-03 08:06:00,
2013-01-03 01:11:00,8.7,5.4,24.75,ESE,108,0.0,1.0,86,0.00,,---,0.00,VWS V14.01,2013-01-03 08:11:00,
2013-01-03 01:16:00,9.1,6.0,24.75,East,92,0.0,1.0,87,0.00,,---,0.00,VWS V14.01,2013-01-03 08:16:00,
2013-01-03 01:21:00,9.2,6.1,24.76,NE,40,0.0,1.0,87,0.00,,---,0.00,VWS V14.01,2013-01-03 08:21:00,
2013-01-03 01:26:00,9.0,5.7,24.76,East,84,0.0,1.0,86,0.00,,---,0.00,VWS V14.01,2013-01-03 08:26:00,
2013-01-03 01:31:00,9.1,5.8,24.76,East,79,0.0,0.0,86,0.00,,---,0.00,VWS V14.01,2013-01-03 08:31:00,
2013-01-03 01:36:00,8.7,5.1,24.76,East,82,1.0,1.0,85,0.00,,---,0.00,VWS V14.01,2013-01-03 08:36:00,
2013-01-03 01:41:00,8.9,5.6,24.76,East,86,0.0,1.0,86,0.00,,---,0.00,VWS V14.01,2013-01-03 08:41:00,
2013-01-03 01:46:00,9.2,5.9,24.77,ENE,77,0.0,1.0,86,0.00,,---,0.00,VWS V14.01,2013-01-03 08:46:00,
2013-01-03 01:51:00,9.1,5.8,24.77,NE,46,0.0,1.0,86,0.00,,---,0.00,VWS V14.01,2013-01-03 08:51:00,
2013-01-03 01:56:00,8.4,4.8,24.77,ESE,110,0.0,1.0,85,0.00,,---,0.00,VWS V14.01,2013-01-03 08:56:00,
2013-01-03 02:01:00,8.0,4.2,24.77,East,81,0.0,1.0,84,0.00,,---,0.00,VWS V14.01,2013-01-03 09:01:00,
2013-01-03 02:06:00,8.0,4.4,24.77,ENE,72,0.0,1.0,85,0.00,,---,0.00,VWS V14.01,2013-01-03 09:06:00,
2013-01-03 02:11:00,7.8,4.2,24.78,ENE,74,0.0,1.0,85,0.00,,---,0.00,VWS V14.01,2013-01-03 09:11:00,
2013-01-03 02:16:00,7.8,4.5,24.78,ENE,73,0.0,1.0,86,0.00,,---,0.00,VWS V14.01,2013-01-03 09:16:00,
2013-01-03 02:21:00,7.7,4.4,24.78,ENE,73,0.0,1.0,86,0.00,,---,0.00,VWS V14.01,2013-01-03 09:21:00,
2013-01-03 02:26:00,7.8,4.7,24.78,ENE,74,0.0,1.0,87,0.00,,---,0.00,VWS V14.01,2013-01-03 09:26:00,
2013-01-03 02:31:00,8.1,5.0,24.78,ENE,73,0.0,0.0,87,0.00,,---,0.00,VWS V14.01,2013-01-03 09:31:00,
2013-01-03 02:36:00,8.5,5.7,24.78,SE,139,0.0,1.0,88,0.00,,---,0.00,VWS V14.01,2013-01-03 09:36:00,
2013-01-03 02:41:00,8.7,5.9,24.78,SE,129,1.0,2.0,88,0.00,,---,0.00,VWS V14.01,2013-01-03 09:41:00,
2013-01-03 02:46:00,8.7,5.6,24.78,SSE,153,0.0,2.0,87,0.00,,---,0.00,VWS V14.01,2013-01-03 09:46:00,
2013-01-03 02:51:00,8.8,5.7,24.78,South,188,0.0,2.0,87,0.00,,---,0.00,VWS V14.01,2013-01-03 09:51:00,
2013-01-03 02:56:00,9.0,5.9,24.78,SSE,167,0.0,2.0,87,0.00,,---,0.00,VWS V14.01,2013-01-03 09:56:00,
2013-01-03 03:01:00,8.9,5.6,24.78,SE,124,0.0,1.0,86,0.00,,---,0.00,VWS V14.01,2013-01-03 10:01:00,
2013-01-03 03:06:00,9.1,5.8,24.78,ESE,122,0.0,1.0,86,0.00,,---,0.00,VWS V14.01,2013-01-03 10:06:00,
2013-01-03 03:11:00,9.1,5.8,24.77,ESE,121,0.0,1.0,86,0.00,,---,0.00,VWS V14.01,2013-01-03 10:11:00,
2013-01-03 03:16:00,9.1,5.8,24.78,ESE,121,0.0,1.0,86,0.00,,---,0.00,VWS V14.01,2013-01-03 10:16:00,
2013-01-03 03:21:00,9.1,5.8,24.78,ESE,123,0.0,1.0,86,0.00,,---,0.00,VWS V14.01,2013-01-03 10:21:00,
2013-01-03 03:26:00,9.1,5.8,24.78,ESE,122,0.0,1.0,86,0.00,,---,0.00,VWS V14.01,2013-01-03 10:26:00,
2013-01-03 03:31:00,8.9,5.6,24.77,ESE,122,0.0,0.0,86,0.00,,---,0.00,VWS V14.01,2013-01-03 10:31:00,
2013-01-03 03:36:00,8.7,5.4,24.78,ESE,123,0.0,0.0,86,0.00,,---,0.00,VWS V14.01,2013-01-03 10:36:00,
2013-01-03 03:41:00,8.2,4.9,24.78,NW,311,0.0,1.0,86,0.00,,---,0.00,VWS V14.01,2013-01-03 10:41:00,
2013-01-03 03:46:00,7.5,3.9,24.78,NW,312,0.0,1.0,85,0.00,,---,0.00,VWS V14.01,2013-01-03 10:46:00,
2013-01-03 03:51:00,7.3,4.0,24.78,NW,306,0.0,1.0,86,0.00,,---,0.00,VWS V14.01,2013-01-03 10:51:00,
2013-01-03 03:56:00,7.2,3.9,24.78,NW,309,0.0,1.0,86,0.00,,---,0.00,VWS V14.01,2013-01-03 10:56:00,
2013-01-03 04:01:00,7.0,3.7,24.78,NNE,16,0.0,0.0,86,0.00,,---,0.00,VWS V14.01,2013-01-03 11:01:00,
2013-01-03 04:06:00,6.6,3.3,24.78,North,352,0.0,0.0,86,0.00,,---,0.00,VWS V14.01,2013-01-03 11:06:00,
2013-01-03 04:11:00,6.3,2.8,24.79,North,351,0.0,0.0,85,0.00,,---,0.00,VWS V14.01,2013-01-03 11:11:00,
2013-01-03 04:16:00,6.3,3.0,24.79,North,352,0.0,0.0,86,0.00,,---,0.00,VWS V14.01,2013-01-03 11:16:00,
2013-01-03 04:21:00,6.2,2.9,24.79,North,352,0.0,0.0,86,0.00,,---,0.00,VWS V14.01,2013-01-03 11:21:00,
2013-01-03 04:26:00,6.0,2.7,24.79,North,352,0.0,0.0,86,0.00,,---,0.00,VWS V14.01,2013-01-03 11:26:00,
2013-01-03 04:31:00,5.8,2.5,24.79,North,352,0.0,0.0,86,0.00,,---,0.00,VWS V14.01,2013-01-03 11:31:00,
2013-01-03 04:36:00,5.5,2.2,24.79,North,353,0.0,0.0,86,0.00,,---,0.00,VWS V14.01,2013-01-03 11:36:00,
2013-01-03 04:41:00,5.2,1.9,24.79,North,353,0.0,1.0,86,0.00,,---,0.00,VWS V14.01,2013-01-03 11:41:00,
2013-01-03 04:46:00,4.8,1.5,24.79,SSE,165,0.0,1.0,86,0.00,,---,0.00,VWS V14.01,2013-01-03 11:46:00,
2013-01-03 04:51:00,4.7,1.4,24.79,SSE,155,1.0,1.0,86,0.00,,---,0.00,VWS V14.01,2013-01-03 11:51:00,
2013-01-03 04:56:00,4.7,1.7,24.79,SSE,158,1.0,1.0,87,0.00,,---,0.00,VWS V14.01,2013-01-03 11:56:00,
2013-01-03 05:01:00,4.7,1.4,24.80,SSE,150,0.0,1.0,86,0.00,,---,0.00,VWS V14.01,2013-01-03 12:01:00,
2013-01-03 05:06:00,4.6,1.3,24.80,SE,143,1.0,1.0,86,0.00,,---,0.00,VWS V14.01,2013-01-03 12:06:00,
2013-01-03 05:11:00,4.6,1.3,24.80,SE,125,0.0,1.0,86,0.00,,---,0.00,VWS V14.01,2013-01-03 12:11:00,
2013-01-03 05:16:00,4.6,1.3,24.80,ESE,110,0.0,1.0,86,0.00,,---,0.00,VWS V14.01,2013-01-03 12:16:00,
2013-01-03 05:21:00,4.9,1.6,24.80,ESE,113,0.0,1.0,86,0.00,,---,0.00,VWS V14.01,2013-01-03 12:21:00,
2013-01-03 05:26:00,5.0,2.0,24.80,ESE,113,0.0,1.0,87,0.00,,---,0.00,VWS V14.01,2013-01-03 12:26:00,
2013-01-03 05:31:00,5.1,2.1,24.80,ESE,113,0.0,0.0,87,0.00,,---,0.00,VWS V14.01,2013-01-03 12:31:00,
2013-01-03 05:36:00,5.3,2.3,24.80,ESE,113,0.0,0.0,87,0.00,,---,0.00,VWS V14.01,2013-01-03 12:36:00,
2013-01-03 05:41:00,5.4,2.4,24.81,East,90,0.0,1.0,87,0.00,,---,0.00,VWS V14.01,2013-01-03 12:41:00,
2013-01-03 05:46:00,5.6,2.6,24.81,ESE,112,0.0,1.0,87,0.00,,---,0.00,VWS V14.01,2013-01-03 12:46:00,
2013-01-03 05:50:00,5.7,2.7,24.81,ESE,111,0.0,1.0,87,0.00,,---,0.00,VWS V14.01,2013-01-03 12:50:00,
2013-01-03 05:55:00,5.6,2.6,24.81,ESE,111,0.0,1.0,87,0.00,,---,0.00,VWS V14.01,2013-01-03 12:55:00,
2013-01-03 06:00:00,5.6,2.6,24.81,ESE,112,0.0,0.0,87,0.00,,---,0.00,VWS V14.01,2013-01-03 13:00:00,
2013-01-03 06:05:00,5.4,2.4,24.82,ESE,110,0.0,1.0,87,0.00,,---,0.00,VWS V14.01,2013-01-03 13:05:00,
2013-01-03 06:10:00,5.4,2.4,24.81,ESE,110,0.0,1.0,87,0.00,,---,0.00,VWS V14.01,2013-01-03 13:10:00,
2013-01-03 06:15:00,5.3,2.3,24.82,ESE,111,0.0,1.0,87,0.00,,---,0.00,VWS V14.01,2013-01-03 13:15:00,
2013-01-03 06:20:00,4.8,1.5,24.81,SE,139,2.0,2.0,86,0.00,,---,0.00,VWS V14.01,2013-01-03 13:20:00,
2013-01-03 06:25:00,4.5,1.2,24.82,SSE,148,2.0,2.0,86,0.00,,---,0.00,VWS V14.01,2013-01-03 13:25:00,
2013-01-03 06:30:00,4.6,1.6,24.82,SSE,148,1.0,2.0,87,0.00,,---,0.00,VWS V14.01,2013-01-03 13:30:00,
2013-01-03 06:35:00,4.3,1.0,24.82,SE,146,2.0,2.0,86,0.00,,---,0.00,VWS V14.01,2013-01-03 13:35:00,
2013-01-03 06:40:00,3.6,0.1,24.82,SSE,149,1.0,2.0,85,0.00,,---,0.00,VWS V14.01,2013-01-03 13:40:00,
2013-01-03 06:45:00,3.2,-0.3,24.82,ESE,118,0.0,2.0,85,0.00,,---,0.00,VWS V14.01,2013-01-03 13:45:00,
2013-01-03 06:50:00,3.2,-0.3,24.82,SE,139,0.0,2.0,85,0.00,,---,0.00,VWS V14.01,2013-01-03 13:50:00,
2013-01-03 06:55:00,3.7,0.5,24.82,SE,139,0.0,2.0,86,0.00,,---,0.00,VWS V14.01,2013-01-03 13:55:00,
2013-01-03 07:00:00,4.1,0.9,24.82,SE,139,0.0,0.0,86,0.00,,---,0.00,VWS V14.01,2013-01-03 14:00:00,
2013-01-03 07:05:00,4.4,1.4,24.83,SE,134,1.0,1.0,87,0.00,,---,0.00,VWS V14.01,2013-01-03 14:05:00,
2013-01-03 07:07:00,4.4,1.1,24.83,SE,127,1.0,1.0,86,0.00,,---,0.00,VWS V14.01,2013-01-03 14:07:00,
2013-01-03 07:12:00,4.4,1.1,24.83,SSE,152,1.0,1.0,86,0.00,,---,0.00,VWS V14.01,2013-01-03 14:12:00,
2013-01-03 07:17:00,4.6,1.3,24.83,SE,139,0.0,1.0,86,0.00,,---,0.00,VWS V14.01,2013-01-03 14:17:00,
2013-01-03 07:22:00,4.8,1.5,24.83,SSE,161,0.0,1.0,86,0.00,,---,0.00,VWS V14.01,2013-01-03 14:22:00,
2013-01-03 07:27:00,4.7,1.4,24.83,ESE,122,0.0,1.0,86,0.00,,---,0.00,VWS V14.01,2013-01-03 14:27:00,
2013-01-03 07:32:00,4.7,1.4,24.83,SE,139,0.0,0.0,86,0.00,,---,0.00,VWS V14.01,2013-01-03 14:32:00,
2013-01-03 07:37:00,4.9,1.6,24.83,SE,134,0.0,1.0,86,0.00,,---,0.00,VWS V14.01,2013-01-03 14:37:00,
2013-01-03 07:42:00,5.4,2.4,24.84,SE,139,0.0,1.0,87,0.00,,---,0.00,VWS V14.01,2013-01-03 14:42:00,
2013-01-03 07:47:00,5.9,2.9,24.83,SE,137,0.0,1.0,87,0.00,,---,0.00,VWS V14.01,2013-01-03 14:47:00,
2013-01-03 07:52:00,6.0,2.7,24.83,SE,129,0.0,1.0,86,0.00,,---,0.00,VWS V14.01,2013-01-03 14:52:00,
2013-01-03 07:57:00,6.0,2.7,24.83,SE,136,0.0,1.0,86,0.00,,---,0.00,VWS V14.01,2013-01-03 14:57:00,
2013-01-03 08:02:00,6.6,3.3,24.84,SE,135,0.0,0.0,86,0.00,,---,0.00,VWS V14.01,2013-01-03 15:02:00,
2013-01-03 08:07:00,7.4,4.1,24.84,SE,135,0.0,0.0,86,0.00,,---,0.00,VWS V14.01,2013-01-03 15:07:00,
2013-01-03 08:12:00,8.0,4.7,24.84,SE,136,0.0,0.0,86,0.00,,---,0.00,VWS V14.01,2013-01-03 15:12:00,
2013-01-03 08:17:00,7.5,3.7,24.84,SE,136,0.0,0.0,84,0.00,,---,0.00,VWS V14.01,2013-01-03 15:17:00,
2013-01-03 08:22:00,7.2,3.4,24.84,North,11,1.0,1.0,84,0.00,,---,0.00,VWS V14.01,2013-01-03 15:22:00,
2013-01-03 08:27:00,7.1,3.3,24.84,NNW,347,0.0,2.0,84,0.00,,---,0.00,VWS V14.01,2013-01-03 15:27:00,
2013-01-03 08:32:00,7.0,2.9,24.84,NNW,348,0.0,0.0,83,0.00,,---,0.00,VWS V14.01,2013-01-03 15:32:00,
2013-01-03 08:37:00,7.1,3.0,24.84,NW,323,0.0,0.0,83,0.00,,---,0.00,VWS V14.01,2013-01-03 15:37:00,
2013-01-03 08:42:00,6.8,2.7,24.84,NW,311,1.0,2.0,83,0.00,,---,0.00,VWS V14.01,2013-01-03 15:42:00,
2013-01-03 08:47:00,6.4,2.3,24.84,NW,312,1.0,2.0,83,0.00,,---,0.00,VWS V14.01,2013-01-03 15:47:00,
2013-01-03 08:52:00,6.3,2.2,24.85,NW,322,0.0,2.0,83,0.00,,---,0.00,VWS V14.01,2013-01-03 15:52:00,
2013-01-03 08:57:00,6.3,2.2,24.85,NW,309,1.0,2.0,83,0.00,,---,0.00,VWS V14.01,2013-01-03 15:57:00,
2013-01-03 09:02:00,6.4,2.3,24.85,NW,322,0.0,2.0,83,0.00,,---,0.00,VWS V14.01,2013-01-03 16:02:00,
2013-01-03 09:07:00,6.4,2.3,24.85,West,281,2.0,2.0,83,0.00,,---,0.00,VWS V14.01,2013-01-03 16:07:00,
2013-01-03 09:12:00,6.4,2.3,24.85,WNW,300,0.0,2.0,83,0.00,,---,0.00,VWS V14.01,2013-01-03 16:12:00,
2013-01-03 09:17:00,7.2,3.4,24.85,WSW,250,0.0,2.0,84,0.00,,---,0.00,VWS V14.01,2013-01-03 16:17:00,
2013-01-03 09:22:00,8.6,4.8,24.85,WSW,245,0.0,2.0,84,0.00,,---,0.00,VWS V14.01,2013-01-03 16:22:00,
2013-01-03 09:27:00,10.6,6.7,24.85,SE,141,0.0,2.0,84,0.00,,---,0.00,VWS V14.01,2013-01-03 16:27:00,
2013-01-03 09:32:00,11.3,6.3,24.85,SSE,148,0.0,0.0,80,0.00,,---,0.00,VWS V14.01,2013-01-03 16:32:00,
2013-01-03 09:37:00,12.7,7.4,24.86,SSE,148,0.0,0.0,79,0.00,,---,0.00,VWS V14.01,2013-01-03 16:37:00,
2013-01-03 09:42:00,12.8,6.4,24.86,SSW,198,0.0,0.0,75,0.00,,---,0.00,VWS V14.01,2013-01-03 16:42:00,
2013-01-03 09:47:00,12.9,6.5,24.86,South,191,0.0,0.0,75,0.00,,---,0.00,VWS V14.01,2013-01-03 16:47:00,
2013-01-03 09:52:00,14.8,8.6,24.86,SSE,166,0.0,0.0,76,0.00,,---,0.00,VWS V14.01,2013-01-03 16:52:00,
2013-01-03 09:57:00,15.9,8.8,24.87,SSE,166,0.0,1.0,73,0.00,,---,0.00,VWS V14.01,2013-01-03 16:57:00,
2013-01-03 10:02:00,13.9,5.9,24.87,East,89,2.0,2.0,70,0.00,,---,0.00,VWS V14.01,2013-01-03 17:02:00,
2013-01-03 10:07:00,13.0,6.0,24.87,East,91,1.0,2.0,73,0.00,,---,0.00,VWS V14.01,2013-01-03 17:07:00,
2013-01-03 10:12:00,12.9,6.8,24.87,East,79,0.0,2.0,76,0.00,,---,0.00,VWS V14.01,2013-01-03 17:12:00,
2013-01-03 10:17:00,12.8,7.0,24.87,East,84,0.0,2.0,77,0.00,,---,0.00,VWS V14.01,2013-01-03 17:17:00,
2013-01-03 10:22:00,12.8,7.2,24.87,NNE,22,2.0,3.0,78,0.00,,---,0.00,VWS V14.01,2013-01-03 17:22:00,
2013-01-03 10:27:00,12.8,7.2,24.87,NNE,26,1.0,3.0,78,0.00,,---,0.00,VWS V14.01,2013-01-03 17:27:00,
2013-01-03 10:32:00,12.8,7.2,24.87,ENE,63,1.0,2.0,78,0.00,,---,0.00,VWS V14.01,2013-01-03 17:32:00,
2013-01-03 10:37:00,13.4,8.4,24.87,ENE,68,2.0,4.0,80,0.00,,---,0.00,VWS V14.01,2013-01-03 17:37:00,
2013-01-03 10:42:00,13.7,8.4,24.87,ENE,57,2.0,4.0,79,0.00,,---,0.00,VWS V14.01,2013-01-03 17:42:00,
2013-01-03 10:47:00,14.0,8.7,24.87,NE,46,2.0,4.0,79,0.00,,---,0.00,VWS V14.01,2013-01-03 17:47:00,
2013-01-03 10:52:00,14.5,9.2,24.86,ENE,66,0.0,4.0,79,0.00,,---,0.00,VWS V14.01,2013-01-03 17:52:00,
2013-01-03 10:57:00,15.3,10.2,24.86,NE,46,0.0,4.0,80,0.00,,---,0.00,VWS V14.01,2013-01-03 17:57:00,
2013-01-03 11:02:00,15.6,10.0,24.86,NNE,12,0.0,3.0,78,0.00,,---,0.00,VWS V14.01,2013-01-03 18:02:00,
2013-01-03 11:07:00,16.2,10.6,24.86,NE,51,2.0,3.0,78,0.00,,---,0.00,VWS V14.01,2013-01-03 18:07:00,
2013-01-03 11:12:00,16.7,11.1,24.85,NNE,19,0.0,3.0,78,0.00,,---,0.00,VWS V14.01,2013-01-03 18:12:00,
2013-01-03 11:17:00,17.7,12.3,24.85,WSW,246,1.0,3.0,79,0.00,,---,0.00,VWS V14.01,2013-01-03 18:17:00,
2013-01-03 11:22:00,18.6,12.3,24.85,SW,216,1.0,3.0,76,0.00,,---,0.00,VWS V14.01,2013-01-03 18:22:00,
2013-01-03 11:27:00,18.8,11.9,24.85,WSW,242,0.0,3.0,74,0.00,,---,0.00,VWS V14.01,2013-01-03 18:27:00,
2013-01-03 11:32:00,19.0,12.1,24.85,West,260,0.0,0.0,74,0.00,,---,0.00,VWS V14.01,2013-01-03 18:32:00,
2013-01-03 11:37:00,19.5,12.6,24.84,NW,307,0.0,0.0,74,0.00,,---,0.00,VWS V14.01,2013-01-03 18:37:00,
2013-01-03 11:42:00,19.8,12.6,24.84,NW,308,0.0,1.0,73,0.00,,---,0.00,VWS V14.01,2013-01-03 18:42:00,
2013-01-03 11:47:00,19.6,12.4,24.83,NNW,336,0.0,2.0,73,0.00,,---,0.00,VWS V14.01,2013-01-03 18:47:00,
2013-01-03 11:52:00,20.0,12.8,24.83,North,4,0.0,3.0,73,0.00,,---,0.00,VWS V14.01,2013-01-03 18:52:00,
2013-01-03 11:57:00,20.4,13.1,24.83,NNE,12,0.0,3.0,73,0.00,,---,0.00,VWS V14.01,2013-01-03 18:57:00,
2013-01-03 12:02:00,21.3,14.0,24.83,ESE,119,0.0,1.0,73,0.00,,---,0.00,VWS V14.01,2013-01-03 19:02:00,
2013-01-03 12:07:00,22.4,14.4,24.82,ESE,104,0.0,2.0,71,0.00,,---,0.00,VWS V14.01,2013-01-03 19:07:00,
2013-01-03 12:12:00,22.4,13.8,24.82,ESE,104,0.0,2.0,69,0.00,,---,0.00,VWS V14.01,2013-01-03 19:12:00,
2013-01-03 12:17:00,23.4,15.1,24.82,NNE,25,0.0,2.0,70,0.00,,---,0.00,VWS V14.01,2013-01-03 19:17:00,
2013-01-03 12:52:00,23.9,14.2,24.81,ESE,114,0.0,3.0,66,0.00,,---,0.00,VWS V14.01,2013-01-03 19:52:00,
2013-01-03 12:57:00,24.4,14.3,24.81,NNE,23,2.0,3.0,65,0.00,,---,0.00,VWS V14.01,2013-01-03 19:57:00,
2013-01-03 13:02:00,24.3,13.9,24.81,North,6,0.0,3.0,64,0.00,,---,0.00,VWS V14.01,2013-01-03 20:02:00,
2013-01-03 13:07:00,24.4,14.0,24.81,NNE,12,0.0,3.0,64,0.00,,---,0.00,VWS V14.01,2013-01-03 20:07:00,
2013-01-03 13:12:00,24.8,14.0,24.80,NNE,12,0.0,3.0,63,0.00,,---,0.00,VWS V14.01,2013-01-03 20:12:00,
2013-01-03 13:17:00,25.1,13.9,24.80,NNE,18,0.0,3.0,62,0.00,,---,0.00,VWS V14.01,2013-01-03 20:17:00,
2013-01-03 13:22:00,25.7,14.1,24.80,WSW,238,0.0,3.0,61,0.00,,---,0.00,VWS V14.01,2013-01-03 20:22:00,
2013-01-03 13:27:00,27.6,15.9,24.80,SSE,150,0.0,3.0,61,0.00,,---,0.00,VWS V14.01,2013-01-03 20:27:00,
2013-01-03 13:32:00,28.9,15.6,24.80,ESE,102,0.0,1.0,57,0.00,,---,0.00,VWS V14.01,2013-01-03 20:32:00,
2013-01-03 13:37:00,28.4,14.3,24.80,NE,46,0.0,1.0,55,0.00,,---,0.00,VWS V14.01,2013-01-03 20:37:00,
2013-01-03 13:42:00,28.0,15.1,24.80,SE,139,0.0,1.0,58,0.00,,---,0.00,VWS V14.01,2013-01-03 20:42:00,
2013-01-03 13:47:00,29.0,14.9,24.80,WNW,288,1.0,3.0,55,0.00,,---,0.00,VWS V14.01,2013-01-03 20:47:00,
2013-01-03 13:52:00,27.7,13.2,24.79,NW,323,0.0,3.0,54,0.00,,---,0.00,VWS V14.01,2013-01-03 20:52:00,
2013-01-03 13:57:00,28.0,14.3,24.79,NW,318,0.0,3.0,56,0.00,,---,0.00,VWS V14.01,2013-01-03 20:57:00,
2013-01-03 14:02:00,27.8,13.8,24.79,SW,224,0.0,1.0,55,0.00,,---,0.00,VWS V14.01,2013-01-03 21:02:00,
2013-01-03 14:07:00,27.8,14.2,24.79,NNW,335,0.0,2.0,56,0.00,,---,0.00,VWS V14.01,2013-01-03 21:07:00,
2013-01-03 14:12:00,29.1,15.0,24.79,SSW,192,0.0,3.0,55,0.00,,---,0.00,VWS V14.01,2013-01-03 21:12:00,
2013-01-03 14:17:00,29.3,14.3,24.79,SSW,198,4.0,5.0,53,0.00,,---,0.00,VWS V14.01,2013-01-03 21:17:00,
2013-01-03 14:22:00,29.3,13.9,24.79,East,91,0.0,5.0,52,0.00,,---,0.00,VWS V14.01,2013-01-03 21:22:00,
2013-01-03 14:27:00,29.3,14.7,24.79,SSW,205,1.0,5.0,54,0.00,,---,0.00,VWS V14.01,2013-01-03 21:27:00,
2013-01-03 14:32:00,28.2,13.3,24.79,WNW,297,1.0,4.0,53,0.00,,---,0.00,VWS V14.01,2013-01-03 21:32:00,
2013-01-03 14:37:00,28.0,13.9,24.79,West,272,2.0,4.0,55,0.00,,---,0.00,VWS V14.01,2013-01-03 21:37:00,
2013-01-03 14:42:00,28.0,14.3,24.79,SSW,194,1.0,4.0,56,0.00,,---,0.00,VWS V14.01,2013-01-03 21:42:00,
2013-01-03 14:47:00,28.9,14.4,24.79,East,101,0.0,4.0,54,0.00,,---,0.00,VWS V14.01,2013-01-03 21:47:00,
2013-01-03 14:52:00,29.1,14.5,24.79,North,4,0.0,4.0,54,0.00,,---,0.00,VWS V14.01,2013-01-03 21:52:00,
2013-01-03 14:57:00,28.6,13.6,24.79,WNW,287,3.0,4.0,53,0.00,,---,0.00,VWS V14.01,2013-01-03 21:57:00,
2013-01-03 15:02:00,28.1,14.0,24.79,NW,324,0.0,2.0,55,0.00,,---,0.00,VWS V14.01,2013-01-03 22:02:00,
2013-01-03 15:07:00,28.0,13.9,24.79,NNW,328,2.0,4.0,55,0.00,,---,0.00,VWS V14.01,2013-01-03 22:07:00,
2013-01-03 15:12:00,27.8,14.2,24.79,NW,323,3.0,4.0,56,0.00,,---,0.00,VWS V14.01,2013-01-03 22:12:00,
2013-01-03 15:17:00,27.7,14.1,24.78,NW,308,1.0,4.0,56,0.00,,---,0.00,VWS V14.01,2013-01-03 22:17:00,
2013-01-03 15:22:00,28.1,14.8,24.78,NW,308,3.0,4.0,57,0.00,,---,0.00,VWS V14.01,2013-01-03 22:22:00,
2013-01-03 15:27:00,28.0,14.3,24.78,NW,318,3.0,4.0,56,0.00,,---,0.00,VWS V14.01,2013-01-03 22:27:00,
2013-01-03 15:32:00,27.8,14.2,24.78,WNW,300,4.0,6.0,56,0.00,,---,0.00,VWS V14.01,2013-01-03 22:32:00,
2013-01-03 15:37:00,27.6,14.0,24.78,NW,314,0.0,6.0,56,0.00,,---,0.00,VWS V14.01,2013-01-03 22:37:00,
2013-01-03 15:42:00,27.7,14.1,24.78,WNW,300,2.0,6.0,56,0.00,,---,0.00,VWS V14.01,2013-01-03 22:42:00,
2013-01-03 15:47:00,27.5,13.9,24.78,West,278,4.0,6.0,56,0.00,,---,0.00,VWS V14.01,2013-01-03 22:47:00,
2013-01-03 15:52:00,27.4,13.4,24.78,NW,307,1.0,6.0,55,0.00,,---,0.00,VWS V14.01,2013-01-03 22:52:00,
2013-01-03 15:57:00,27.4,13.8,24.78,North,360,1.0,6.0,56,0.00,,---,0.00,VWS V14.01,2013-01-03 22:57:00,
2013-01-03 16:02:00,27.4,13.8,24.78,NW,304,3.0,4.0,56,0.00,,---,0.00,VWS V14.01,2013-01-03 23:02:00,
2013-01-03 16:07:00,27.5,13.5,24.78,NW,325,0.0,4.0,55,0.00,,---,0.00,VWS V14.01,2013-01-03 23:07:00,
2013-01-03 16:12:00,27.6,13.6,24.78,North,9,2.0,4.0,55,0.00,,---,0.00,VWS V14.01,2013-01-03 23:12:00,
2013-01-03 16:17:00,27.3,13.3,24.78,North,5,2.0,4.0,55,0.00,,---,0.00,VWS V14.01,2013-01-03 23:17:00,
2013-01-03 16:22:00,27.2,13.6,24.78,North,6,0.0,4.0,56,0.00,,---,0.00,VWS V14.01,2013-01-03 23:22:00,
2013-01-03 16:27:00,27.4,13.8,24.78,NNW,335,0.0,4.0,56,0.00,,---,0.00,VWS V14.01,2013-01-03 23:27:00,
2013-01-03 16:32:00,27.2,13.6,24.78,North,349,1.0,3.0,56,0.00,,---,0.00,VWS V14.01,2013-01-03 23:32:00,
2013-01-03 16:37:00,27.1,13.5,24.78,North,11,1.0,3.0,56,0.00,,---,0.00,VWS V14.01,2013-01-03 23:37:00,
2013-01-03 16:42:00,27.0,13.4,24.78,NNE,12,1.0,3.0,56,0.00,,---,0.00,VWS V14.01,2013-01-03 23:42:00,
2013-01-03 16:47:00,27.1,13.5,24.78,North,359,1.0,3.0,56,0.00,,---,0.00,VWS V14.01,2013-01-03 23:47:00,
2013-01-03 16:52:00,27.1,13.5,24.78,North,1,0.0,3.0,56,0.00,,---,0.00,VWS V14.01,2013-01-03 23:52:00,
2013-01-03 16:57:00,27.0,13.4,24.78,North,349,0.0,3.0,56,0.00,,---,0.00,VWS V14.01,2013-01-03 23:57:00,
2013-01-03 17:02:00,26.7,13.1,24.78,East,96,0.0,0.0,56,0.00,,---,0.00,VWS V14.01,2013-01-04 00:02:00,
2013-01-03 17:07:00,26.0,12.9,24.79,East,99,1.0,2.0,57,0.00,,---,0.00,VWS V14.01,2013-01-04 00:07:00,
2013-01-03 17:12:00,24.9,12.6,24.79,East,85,2.0,2.0,59,0.00,,---,0.00,VWS V14.01,2013-01-04 00:12:00,
2013-01-03 17:17:00,24.2,11.9,24.79,East,88,0.0,2.0,59,0.00,,---,0.00,VWS V14.01,2013-01-04 00:17:00,
2013-01-03 17:22:00,23.9,12.1,24.79,East,94,1.0,3.0,60,0.00,,---,0.00,VWS V14.01,2013-01-04 00:22:00,
2013-01-03 17:27:00,23.3,11.5,24.79,East,89,1.0,3.0,60,0.00,,---,0.00,VWS V14.01,2013-01-04 00:27:00,
2013-01-03 17:32:00,23.0,11.6,24.79,East,83,3.0,3.0,61,0.00,,---,0.00,VWS V14.01,2013-01-04 00:32:00,
2013-01-03 17:37:00,22.9,11.5,24.79,East,84,2.0,4.0,61,0.00,,---,0.00,VWS V14.01,2013-01-04 00:37:00,
2013-01-03 17:42:00,22.7,11.6,24.79,East,85,2.0,4.0,62,0.00,,---,0.00,VWS V14.01,2013-01-04 00:42:00,
2013-01-03 17:47:00,22.7,11.6,24.79,East,92,3.0,4.0,62,0.00,,---,0.00,VWS V14.01,2013-01-04 00:47:00,
2013-01-03 17:52:00,22.4,11.4,24.79,ENE,77,3.0,4.0,62,0.00,,---,0.00,VWS V14.01,2013-01-04 00:52:00,
2013-01-03 17:57:00,22.2,11.2,24.79,East,88,2.0,4.0,62,0.00,,---,0.00,VWS V14.01,2013-01-04 00:57:00,
2013-01-03 18:02:00,22.1,11.1,24.79,East,96,3.0,4.0,62,0.00,,---,0.00,VWS V14.01,2013-01-04 01:02:00,
2013-01-03 18:07:00,20.9,10.3,24.79,East,98,4.0,4.0,63,0.00,,---,0.00,VWS V14.01,2013-01-04 01:07:00,
2013-01-03 18:12:00,20.5,10.6,24.79,East,91,4.0,5.0,65,0.00,,---,0.00,VWS V14.01,2013-01-04 01:12:00,
2013-01-03 18:17:00,20.3,10.8,24.79,East,94,3.0,5.0,66,0.00,,---,0.00,VWS V14.01,2013-01-04 01:17:00,
2013-01-03 18:22:00,20.8,11.2,24.79,East,98,3.0,5.0,66,0.00,,---,0.00,VWS V14.01,2013-01-04 01:22:00,
2013-01-03 18:27:00,21.3,11.4,24.79,East,85,2.0,5.0,65,0.00,,---,0.00,VWS V14.01,2013-01-04 01:27:00,
2013-01-03 18:32:00,21.5,11.2,24.80,East,98,0.0,2.0,64,0.00,,---,0.00,VWS V14.01,2013-01-04 01:32:00,
2013-01-03 18:37:00,20.5,9.9,24.80,East,89,3.0,3.0,63,0.00,,---,0.00,VWS V14.01,2013-01-04 01:37:00,
2013-01-03 18:42:00,20.2,10.7,24.80,East,83,2.0,3.0,66,0.00,,---,0.00,VWS V14.01,2013-01-04 01:42:00,
2013-01-03 18:47:00,21.2,11.3,24.80,ENE,63,0.0,3.0,65,0.00,,---,0.00,VWS V14.01,2013-01-04 01:47:00,
2013-01-03 18:52:00,21.6,11.7,24.80,ENE,72,0.0,3.0,65,0.00,,---,0.00,VWS V14.01,2013-01-04 01:52:00,
2013-01-03 18:57:00,21.7,11.4,24.80,East,84,0.0,3.0,64,0.00,,---,0.00,VWS V14.01,2013-01-04 01:57:00,
2013-01-03 19:02:00,21.3,11.0,24.80,East,79,0.0,1.0,64,0.00,,---,0.00,VWS V14.01,2013-01-04 02:02:00,
2013-01-03 19:07:00,21.1,11.2,24.80,East,83,0.0,1.0,65,0.00,,---,0.00,VWS V14.01,2013-01-04 02:07:00,
2013-01-03 19:12:00,20.8,10.9,24.80,East,82,0.0,1.0,65,0.00,,---,0.00,VWS V14.01,2013-01-04 02:12:00,
2013-01-03 19:17:00,21.2,11.3,24.80,ENE,60,0.0,1.0,65,0.00,,---,0.00,VWS V14.01,2013-01-04 02:17:00,
2013-01-03 19:22:00,20.9,11.0,24.80,East,86,0.0,1.0,65,0.00,,---,0.00,VWS V14.01,2013-01-04 02:22:00,
2013-01-03 19:27:00,21.2,11.3,24.80,East,94,2.0,2.0,65,0.00,,---,0.00,VWS V14.01,2013-01-04 02:27:00,
2013-01-03 19:32:00,21.4,11.1,24.79,ENE,77,0.0,0.0,64,0.00,,---,0.00,VWS V14.01,2013-01-04 02:32:00,
2013-01-03 19:37:00,21.2,10.9,24.80,ENE,75,0.0,0.0,64,0.00,,---,0.00,VWS V14.01,2013-01-04 02:37:00,
2013-01-03 19:42:00,20.8,10.9,24.79,East,79,0.0,1.0,65,0.00,,---,0.00,VWS V14.01,2013-01-04 02:42:00,
2013-01-03 19:47:00,20.9,11.0,24.80,East,86,0.0,1.0,65,0.00,,---,0.00,VWS V14.01,2013-01-04 02:47:00,
2013-01-03 19:52:00,20.1,10.2,24.80,East,86,0.0,1.0,65,0.00,,---,0.00,VWS V14.01,2013-01-04 02:52:00,
2013-01-03 19:57:00,19.2,9.7,24.80,East,86,0.0,1.0,66,0.00,,---,0.00,VWS V14.01,2013-01-04 02:57:00,
2013-01-03 20:02:00,18.7,9.2,24.80,ENE,74,0.0,0.0,66,0.00,,---,0.00,VWS V14.01,2013-01-04 03:02:00,
2013-01-03 20:07:00,19.0,10.2,24.80,ENE,72,0.0,1.0,68,0.00,,---,0.00,VWS V14.01,2013-01-04 03:07:00,
2013-01-03 20:12:00,18.4,9.0,24.80,SW,235,2.0,3.0,66,0.00,,---,0.00,VWS V14.01,2013-01-04 03:12:00,
2013-01-03 20:17:00,16.9,7.8,24.80,SW,214,1.0,3.0,67,0.00,,---,0.00,VWS V14.01,2013-01-04 03:17:00,
2013-01-03 20:22:00,17.4,9.9,24.80,SW,222,0.0,3.0,72,0.00,,---,0.00,VWS V14.01,2013-01-04 03:22:00,
2013-01-03 20:27:00,17.6,10.1,24.80,SSW,203,0.0,3.0,72,0.00,,---,0.00,VWS V14.01,2013-01-04 03:27:00,
2013-01-03 20:32:00,17.1,9.3,24.80,SSE,167,2.0,2.0,71,0.00,,---,0.00,VWS V14.01,2013-01-04 03:32:00,
2013-01-03 20:37:00,16.6,9.2,24.80,SSE,152,2.0,3.0,72,0.00,,---,0.00,VWS V14.01,2013-01-04 03:37:00,
2013-01-03 20:42:00,16.5,9.1,24.80,South,169,2.0,3.0,72,0.00,,---,0.00,VWS V14.01,2013-01-04 03:42:00,
2013-01-03 20:46:00,16.3,9.2,24.80,SSE,150,2.0,3.0,73,0.00,,---,0.00,VWS V14.01,2013-01-04 03:46:00,
2013-01-03 20:51:00,16.1,9.0,24.80,SE,138,2.0,3.0,73,0.00,,---,0.00,VWS V14.01,2013-01-04 03:51:00,
2013-01-03 20:56:00,15.9,8.8,24.80,SE,139,3.0,4.0,73,0.00,,---,0.00,VWS V14.01,2013-01-04 03:56:00,
2013-01-03 21:01:00,16.2,9.4,24.80,SE,126,3.0,5.0,74,0.00,,---,0.00,VWS V14.01,2013-01-04 04:01:00,
2013-01-03 21:06:00,16.3,9.5,24.80,SSE,152,3.0,5.0,74,0.00,,---,0.00,VWS V14.01,2013-01-04 04:06:00,
2013-01-03 21:11:00,16.3,9.5,24.80,SSE,156,3.0,5.0,74,0.00,,---,0.00,VWS V14.01,2013-01-04 04:11:00,
2013-01-03 21:16:00,16.2,9.4,24.80,SSE,147,4.0,5.0,74,0.00,,---,0.00,VWS V14.01,2013-01-04 04:16:00,
2013-01-03 21:21:00,15.9,8.8,24.80,ESE,120,4.0,5.0,73,0.00,,---,0.00,VWS V14.01,2013-01-04 04:21:00,
2013-01-03 21:26:00,15.4,8.6,24.80,SE,125,4.0,5.0,74,0.00,,---,0.00,VWS V14.01,2013-01-04 04:26:00,
2013-01-03 21:31:00,15.1,8.3,24.80,SE,126,2.0,4.0,74,0.00,,---,0.00,VWS V14.01,2013-01-04 04:31:00,
2013-01-03 21:36:00,14.5,8.0,24.80,ESE,115,2.0,4.0,75,0.00,,---,0.00,VWS V14.01,2013-01-04 04:36:00,
2013-01-03 21:41:00,14.7,8.5,24.80,SE,128,3.0,4.0,76,0.00,,---,0.00,VWS V14.01,2013-01-04 04:41:00,
2013-01-03 21:46:00,14.9,8.7,24.80,SE,143,4.0,4.0,76,0.00,,---,0.00,VWS V14.01,2013-01-04 04:46:00,
2013-01-03 21:51:00,15.2,9.0,24.80,SE,124,4.0,5.0,76,0.00,,---,0.00,VWS V14.01,2013-01-04 04:51:00,
2013-01-03 21:56:00,14.9,8.4,24.80,SE,134,4.0,5.0,75,0.00,,---,0.00,VWS V14.01,2013-01-04 04:56:00,
2013-01-03 22:00:00,15.2,9.0,24.81,SSE,148,3.0,4.0,76,0.00,,---,0.00,VWS V14.01,2013-01-04 05:00:00,
2013-01-03 22:01:00,15.3,9.1,24.80,SE,145,3.0,4.0,76,0.00,,---,0.00,VWS V14.01,2013-01-04 05:01:00,
2013-01-03 22:06:00,14.9,8.4,24.81,SE,141,5.0,6.0,75,0.00,,---,0.00,VWS V14.01,2013-01-04 05:06:00,
2013-01-03 22:11:00,14.7,8.2,24.80,ESE,117,7.0,7.0,75,0.00,,---,0.00,VWS V14.01,2013-01-04 05:11:00,
2013-01-03 22:16:00,14.2,8.0,24.80,SSE,162,6.0,7.0,76,0.00,,---,0.00,VWS V14.01,2013-01-04 05:16:00,
2013-01-03 22:21:00,14.0,7.8,24.81,SE,131,7.0,8.0,76,0.00,,---,0.00,VWS V14.01,2013-01-04 05:21:00,
2013-01-03 22:26:00,14.0,8.1,24.80,SSE,150,7.0,8.0,77,0.00,,---,0.00,VWS V14.01,2013-01-04 05:26:00,
2013-01-03 22:31:00,13.6,7.5,24.81,SE,141,9.0,9.0,76,0.00,,---,0.00,VWS V14.01,2013-01-04 05:31:00,
2013-01-03 22:36:00,13.5,7.4,24.81,SSE,150,5.0,9.0,76,0.00,,---,0.00,VWS V14.01,2013-01-04 05:36:00,
2013-01-03 22:41:00,13.5,7.7,24.81,SE,140,5.0,9.0,77,0.00,,---,0.00,VWS V14.01,2013-01-04 05:41:00,
2013-01-03 22:46:00,13.5,7.7,24.81,SSE,156,8.0,9.0,77,0.00,,---,0.00,VWS V14.01,2013-01-04 05:46:00,
2013-01-03 22:51:00,13.8,7.9,24.81,SE,134,7.0,9.0,77,0.00,,---,0.00,VWS V14.01,2013-01-04 05:51:00,
2013-01-03 22:56:00,13.5,7.7,24.81,SE,146,8.0,9.0,77,0.00,,---,0.00,VWS V14.01,2013-01-04 05:56:00,
2013-01-03 23:01:00,13.7,8.1,24.81,SSE,150,8.0,9.0,78,0.00,,---,0.00,VWS V14.01,2013-01-04 06:01:00,
2013-01-03 23:06:00,14.0,8.4,24.81,SSE,155,8.0,9.0,78,0.00,,---,0.00,VWS V14.01,2013-01-04 06:06:00,
2013-01-03 23:11:00,13.7,7.8,24.81,SE,144,7.0,9.0,77,0.00,,---,0.00,VWS V14.01,2013-01-04 06:11:00,
2013-01-03 23:16:00,13.7,8.1,24.81,SE,143,5.0,9.0,78,0.00,,---,0.00,VWS V14.01,2013-01-04 06:16:00,
2013-01-03 23:21:00,13.6,7.7,24.81,SE,141,7.0,9.0,77,0.00,,---,0.00,VWS V14.01,2013-01-04 06:21:00,
2013-01-03 23:26:00,13.5,7.7,24.81,SE,139,5.0,9.0,77,0.00,,---,0.00,VWS V14.01,2013-01-04 06:26:00,
2013-01-03 23:31:00,13.4,7.6,24.81,SE,139,7.0,7.0,77,0.00,,---,0.00,VWS V14.01,2013-01-04 06:31:00,
2013-01-03 23:36:00,13.2,7.3,24.81,SE,145,6.0,8.0,77,0.00,,---,0.00,VWS V14.01,2013-01-04 06:36:00,
2013-01-03 23:41:00,13.3,7.4,24.81,SE,146,7.0,8.0,77,0.00,,---,0.00,VWS V14.01,2013-01-04 06:41:00,
2013-01-03 23:46:00,13.3,7.4,24.81,SE,141,6.0,8.0,77,0.00,,---,0.00,VWS V14.01,2013-01-04 06:46:00,
2013-01-03 23:51:00,13.3,7.4,24.81,SE,145,5.0,8.0,77,0.00,,---,0.00,VWS V14.01,2013-01-04 06:51:00,
2013-01-03 23:56:00,13.2,7.3,24.81,SE,131,3.0,8.0,77,0.00,,---,0.00,VWS V14.01,2013-01-04 06:56:00,